Time;durP1;ratioP1;P1;durP2;ratioP2;P2;SDS_P1;SDS_P2;PMS_P1;PMS_P2;Temp;Humidity;BMP_temperature;BMP_pressure;BME280_temperature;BME280_humidity;BME280_pressure;Samples;Min_cycle;Max_cycle;Signal;HPM_P1;HPM_P2
2022/09/29 00:00:29;;;;;;;3.45;2.97;;;;;;;;;;4990922;28;20502;-80
2022/09/29 00:02:55;;;;;;;3.17;2.88;;;;;;;;;;5036095;28;20048;-80
2022/09/29 00:05:21;;;;;;;2.85;2.60;;;;;;;;;;5035709;28;20053;-78
2022/09/29 00:07:47;;;;;;;3.83;3.40;;;;;;;;;;5036024;28;20048;-79
2022/09/29 00:10:13;;;;;;;6.05;3.38;;;;;;;;;;5053742;28;20083;-78
2022/09/29 00:12:40;;;;;;;4.88;3.65;;;;;;;;;;5035738;28;20067;-80
2022/09/29 00:15:06;;;;;;;7.38;4.55;;;;;;;;;;5035669;28;20171;-78
2022/09/29 00:17:32;;;;;;;11.77;4.18;;;;;;;;;;5035630;28;20383;-80
2022/09/29 00:19:58;;;;;;;5.95;3.90;;;;;;;;;;5035129;28;20049;-80
2022/09/29 00:22:24;;;;;;;4.57;4.07;;;;;;;;;;5035959;28;20041;-77
2022/09/29 00:24:50;;;;;;;5.68;4.20;;;;;;;;;;5019389;28;20134;-80
2022/09/29 00:27:17;;;;;;;8.10;5.10;;;6.90;99.90;;;;;;5035540;28;20081;-80
2022/09/29 00:29:44;;;;;;;4.28;3.88;;;;;;;;;;5053318;28;20127;-79
2022/09/29 00:32:10;;;;;;;5.68;4.57;;;;;;;;;;5053607;28;20060;-80
2022/09/29 00:34:36;;;;;;;5.32;3.92;;;;;;;;;;5039833;28;20053;-80
2022/09/29 00:37:02;;;;;;;5.57;4.45;;;;;;;;;;5055122;28;20058;-79
2022/09/29 00:39:28;;;;;;;7.82;4.50;;;;;;;;;;5055253;28;20466;-80
2022/09/29 00:41:56;;;;;;;5.45;3.60;;;;;;;;;;5055250;28;20044;-86
2022/09/29 00:44:22;;;;;;;4.82;3.40;;;;;;;;;;5055198;28;20159;-85
2022/09/29 00:47:01;;;;;;;3.63;3.33;;;;;;;;;;5054949;28;20190;-87
2022/09/29 00:49:39;;;;;;;4.35;3.40;;;;;;;;;;5038499;28;20041;-84
2022/09/29 00:52:14;;;;;;;3.22;2.92;;;6.90;99.90;;;;;;5054725;28;20072;-86
2022/09/29 00:54:55;;;;;;;3.20;2.90;;;;;;;;;;5054967;28;20078;-86
2022/09/29 00:57:27;;;;;;;4.88;3.47;;;6.70;99.90;;;;;;5055107;28;20123;-79
2022/09/29 01:00:01;;;;;;;3.20;2.60;;;6.60;99.90;;;;;;5054574;28;20056;-84
2022/09/29 01:02:27;;;;;;;3.45;3.03;;;;;;;;;;5072624;28;20093;-85
2022/09/29 01:04:54;;;;;;;3.92;2.60;;;;;;;;;;5072921;28;20159;-84
2022/09/29 01:07:22;;;;;;;3.30;3.10;;;6.60;99.90;;;;;;5054622;28;20505;-83
2022/09/29 01:09:49;;;;;;;3.20;2.90;;;;;;;;;;5054951;28;20098;-86
2022/09/29 01:12:16;;;;;;;4.35;2.95;;;;;;;;;;5053934;28;20055;-86
2022/09/29 01:14:42;;;;;;;2.60;2.40;;;6.50;99.90;;;;;;5054666;28;20148;-86
2022/09/29 01:17:09;;;;;;;3.28;2.88;;;;;;;;;;5037938;28;20044;-87
2022/09/29 01:19:38;;;;;;;3.35;3.05;;;;;;;;;;5037773;28;20045;-85
2022/09/29 01:22:22;;;;;;;5.18;3.55;;;;;;;;;;5037804;28;20315;-83
2022/09/29 01:24:48;;;;;;;;;;;;;;;;;;5055140;28;20564;-78
2022/09/29 01:27:24;;;;;;;2.95;2.75;;;6.40;99.90;;;;;;5037902;28;19966;-84
2022/09/29 01:30:02;;;;;;;3.95;3.08;;;6.50;99.90;;;;;;5054174;28;20074;-78
2022/09/29 01:32:35;;;;;;;3.30;3.00;;;;;;;;;;5054038;28;20095;-78
2022/09/29 01:35:00;;;;;;;3.85;3.00;;;;;;;;;;5053968;28;20105;-79
2022/09/29 01:37:42;;;;;;;3.85;3.25;;;;;;;;;;5053843;28;20044;-78
2022/09/29 01:40:08;;;;;;;4.78;3.83;;;;;;;;;;5053843;28;20501;-80
2022/09/29 01:42:54;;;;;;;4.15;3.72;;;6.50;99.90;;;;;;5037473;28;20094;-78
2022/09/29 01:45:20;;;;;;;4.10;3.60;;;;;;;;;;5054003;28;20048;-79
2022/09/29 01:47:55;;;;;;;4.18;3.78;;;6.30;99.90;;;;;;5053860;28;20572;-79
2022/09/29 01:50:24;;;;;;;4.18;3.40;;;;;;;;;;5053973;28;20135;-80
2022/09/29 01:52:54;;;;;;;6.75;4.32;;;;;;;;;;5053596;28;20052;-79
2022/09/29 01:55:24;;;;;;;4.85;4.05;;;6.30;99.90;;;;;;5037159;28;20101;-78
2022/09/29 01:58:01;;;;;;;4.50;4.07;;;;;;;;;;5053819;28;20052;-79
2022/09/29 02:00:31;;;;;;;8.63;5.15;;;6.10;99.90;;;;;;5053759;28;20076;-79
2022/09/29 02:03:16;;;;;;;4.85;4.28;;;;;;;;;;5053684;28;20040;-79
2022/09/29 02:05:44;;;;;;;;;;;6.10;99.90;;;;;;5037498;28;20044;-78
2022/09/29 02:08:32;;;;;;;4.90;4.35;;;;;;;;;;5037071;28;19926;-78
2022/09/29 02:11:02;;;;;;;5.78;4.60;;;;;;;;;;5071597;28;20050;-79
2022/09/29 02:13:34;;;;;;;4.78;4.28;;;6.20;99.90;;;;;;5071559;28;20044;-78
2022/09/29 02:16:00;;;;;;;7.88;4.55;;;;;;;;;;5071712;28;20053;-85
2022/09/29 02:18:30;;;;;;;4.38;3.97;;;;;;;;;;5053648;28;20048;-84
2022/09/29 02:20:56;;;;;;;4.13;3.55;;;;;;;;;;5071817;28;20084;-82
2022/09/29 02:23:22;;;;;;;4.50;3.90;;;;;;;;;;5073526;28;20117;-86
2022/09/29 02:25:49;;;;;;;4.18;3.78;;;;;;;;;;5057997;28;20044;-86
2022/09/29 02:28:16;;;;;;;5.05;4.55;;;;;;;;;;5075740;28;20055;-87
2022/09/29 02:30:42;;;;;;;6.95;4.53;;;;;;;;;;5041321;28;20044;-83
2022/09/29 02:33:23;;;;;;;4.43;4.03;;;6.10;99.90;;;;;;5057832;28;20489;-86
2022/09/29 02:36:10;;;;;;;4.80;4.40;;;6.10;99.90;;;;;;5057427;28;20053;-83
2022/09/29 02:38:56;;;;;;;5.55;3.97;;;6.20;99.90;;;;;;5057353;28;20087;-85
2022/09/29 02:41:38;;;;;;;5.18;4.68;;;5.90;99.90;;;;;;5040697;28;20044;-82
2022/09/29 02:44:31;;;;;;;5.53;3.97;;;;;;;;;;5057416;28;20048;-85
2022/09/29 02:47:09;;;;;;;4.93;4.18;;;;;;;;;;4941957;28;20047;-86
2022/09/29 02:50:12;;;;;;;8.65;4.85;;;6.20;99.90;;;;;;4958261;28;20540;-85
2022/09/29 02:52:59;;;;;;;4.82;4.32;;;6.10;99.90;;;;;;4958100;28;20063;-87
2022/09/29 02:55:42;;;;;;;4.85;4.35;;;6.10;99.90;;;;;;4942039;28;20050;-85
2022/09/29 02:58:48;;;;;;;4.95;4.20;;;6.00;99.90;;;;;;4957959;28;20065;-87
2022/09/29 03:01:15;;;;;;;23.05;5.10;;;;;;;;;;4898102;29;20418;-85
2022/09/29 03:03:41;;;;;;;7.28;4.38;;;;;;;;;;4881978;29;20044;-83
2022/09/29 03:06:08;;;;;;;20.35;3.78;;;5.90;99.90;;;;;;4897633;29;20457;-85
2022/09/29 03:08:34;;;;;;;16.05;4.78;;;;;;;;;;4881752;29;20068;-85
2022/09/29 03:11:00;;;;;;;29.73;6.15;;;;;;;;;;4897298;29;20170;-80
2022/09/29 03:13:26;;;;;;;7.03;3.70;;;;;;;;;;4881869;29;20116;-80
2022/09/29 03:15:52;;;;;;;3.35;3.05;;;;;;;;;;4881957;29;20055;-80
2022/09/29 03:18:18;;;;;;;45.85;6.43;;;;;;;;;;4881648;29;20057;-80
2022/09/29 03:20:44;;;;;;;57.15;6.40;;;;;;;;;;4882083;29;20613;-80
2022/09/29 03:23:10;;;;;;;6.05;4.55;;;;;;;;;;4915925;28;20138;-80
2022/09/29 03:25:36;;;;;;;5.75;3.75;;;;;;;;;;4957532;28;20189;-80
2022/09/29 03:28:02;;;;;;;59.90;6.30;;;;;;;;;;4941162;28;20141;-80
2022/09/29 03:30:28;;;;;;;12.73;4.22;;;;;;;;;;4957603;28;20512;-80
2022/09/29 03:32:54;;;;;;;10.00;5.28;;;;;;;;;;4941677;28;20187;-80
2022/09/29 03:35:21;;;;;;;4.88;3.53;;;;;;;;;;5012748;28;20056;-80
2022/09/29 03:37:47;;;;;;;4.28;3.88;;;;;;;;;;5039651;28;20408;-80
2022/09/29 03:40:13;;;;;;;3.90;3.60;;;;;;;;;;5056268;28;20446;-81
2022/09/29 03:42:39;;;;;;;5.32;4.38;;;;;;;;;;5056087;28;20045;-80
2022/09/29 03:45:06;;;;;;;7.50;4.10;;;;;;;;;;5056288;28;20455;-80
2022/09/29 03:47:32;;;;;;;18.60;4.97;;;;;;;;;;5056240;28;20500;-80
2022/09/29 03:49:58;;;;;;;7.47;3.92;;;;;;;;;;5039631;28;20059;-80
2022/09/29 03:52:24;;;;;;;3.88;3.53;;;;;;;;;;5056348;28;20127;-80
2022/09/29 03:54:50;;;;;;;4.70;4.30;;;;;;;;;;5073973;28;20045;-79
2022/09/29 03:57:16;;;;;;;6.28;4.50;;;;;;;;;;5055900;28;20044;-79
2022/09/29 03:59:42;;;;;;;11.45;4.40;;;;;;;;;;5039425;28;20127;-80
2022/09/29 04:02:08;;;;;;;5.10;4.60;;;;;;;;;;5055891;28;20143;-79
2022/09/29 04:04:34;;;;;;;5.13;4.63;;;;;;;;;;5055902;28;20051;-80
2022/09/29 04:07:00;;;;;;;5.60;5.07;;;;;;;;;;5073945;28;20101;-80
2022/09/29 04:09:26;;;;;;;5.47;4.97;;;;;;;;;;5056100;28;20048;-80
2022/09/29 04:11:52;;;;;;;5.15;4.65;;;;;;;;;;5073901;28;20053;-80
2022/09/29 04:14:18;;;;;;;5.07;4.57;;;;;;;;;;5055502;28;20084;-80
2022/09/29 04:16:44;;;;;;;5.25;4.75;;;;;;;;;;5074035;28;20074;-80
2022/09/29 04:19:10;;;;;;;5.72;5.20;;;;;;;;;;5055802;28;20129;-80
2022/09/29 04:21:36;;;;;;;6.43;5.70;;;;;;;;;;5055603;28;20131;-78
2022/09/29 04:24:03;;;;;;;11.60;6.13;;;;;;;;;;5073456;28;20052;-80
2022/09/29 04:26:29;;;;;;;12.18;5.53;;;;;;;;;;5055361;28;20036;-80
2022/09/29 04:28:55;;;;;;;5.85;5.22;;;;;;;;;;5055164;28;20048;-80
2022/09/29 04:31:21;;;;;;;6.32;5.70;;;;;;;;;;5055579;28;20481;-81
2022/09/29 04:33:47;;;;;;;5.82;5.28;;;;;;;;;;5055328;28;20095;-80
2022/09/29 04:36:13;;;;;;;5.68;5.18;;;;;;;;;;5055145;28;20060;-80
2022/09/29 04:38:39;;;;;;;6.35;5.75;;;;;;;;;;5054962;28;20109;-80
2022/09/29 04:41:05;;;;;;;7.47;6.72;;;;;;;;;;5038805;28;20481;-80
2022/09/29 04:43:31;;;;;;;7.30;6.28;;;;;;;;;;5055074;28;20102;-80
2022/09/29 04:46:02;;;;;;;7.05;6.40;;;5.30;99.90;;;;;;5054756;28;20098;-81
2022/09/29 04:48:28;;;;;;;7.43;6.68;;;;;;;;;;5038701;28;20118;-80
2022/09/29 04:50:54;;;;;;;5.97;5.40;;;;;;;;;;5055079;28;20481;-80
2022/09/29 04:53:20;;;;;;;7.30;6.57;;;;;;;;;;5055113;28;20048;-80
2022/09/29 04:55:46;;;;;;;7.85;6.38;;;;;;;;;;5038261;28;20493;-81
2022/09/29 04:58:13;;;;;;;8.80;6.55;;;;;;;;;;5054909;28;20051;-80
2022/09/29 05:00:39;;;;;;;7.22;5.57;;;;;;;;;;5038033;28;20044;-85
2022/09/29 05:03:06;;;;;;;7.30;6.50;;;;;;;;;;5054608;28;20048;-86
2022/09/29 05:05:32;;;;;;;12.30;5.85;;;;;;;;;;5054754;28;20489;-86
2022/09/29 05:07:58;;;;;;;14.98;6.43;;;;;;;;;;5056520;28;20076;-84
2022/09/29 05:10:25;;;;;;;10.80;6.50;;;5.40;99.90;;;;;;5040603;28;20045;-84
2022/09/29 05:12:51;;;;;;;75.97;10.75;;;;;;;;;;5057040;28;20044;-80
2022/09/29 05:15:19;;;;;;;8.07;6.55;;;5.30;99.90;;;;;;5056102;28;20040;-85
2022/09/29 05:17:46;;;;;;;7.10;6.35;;;;;;;;;;5039924;28;20155;-84
2022/09/29 05:20:12;;;;;;;17.55;7.43;;;;;;;;;;5075133;28;20044;-86
2022/09/29 05:22:38;;;;;;;65.97;9.73;;;;;;;;;;5074801;28;20453;-84
2022/09/29 05:25:04;;;;;;;7.72;6.88;;;;;;;;;;5039663;28;20050;-85
2022/09/29 05:27:30;;;;;;;9.07;7.15;;;;;;;;;;5074143;28;20119;-85
2022/09/29 05:29:57;;;;;;;14.00;7.80;;;;;;;;;;5056601;28;20131;-83
2022/09/29 05:32:23;;;;;;;16.08;7.38;;;;;;;;;;5039704;28;20049;-86
2022/09/29 05:34:49;;;;;;;7.78;6.25;;;;;;;;;;5056319;28;20067;-86
2022/09/29 05:37:17;;;;;;;8.20;6.93;;;;;;;;;;5056172;28;20049;-86
2022/09/29 05:39:43;;;;;;;10.50;7.00;;;;;;;;;;5038122;28;20098;-80
2022/09/29 05:42:10;;;;;;;18.15;7.18;;;5.50;99.90;;;;;;5054078;28;20045;-78
2022/09/29 05:44:37;;;;;;;12.88;6.55;;;;;;;;;;5054171;28;20090;-78
2022/09/29 05:47:03;;;;;;;7.25;6.25;;;;;;;;;;5071914;28;20060;-80
2022/09/29 05:49:30;;;;;;;14.93;6.78;;;;;;;;;;5053815;28;20493;-79
2022/09/29 05:51:56;;;;;;;12.60;6.03;;;;;;;;;;5053984;28;20052;-77
2022/09/29 05:54:22;;;;;;;6.88;6.18;;;;;;;;;;5072027;28;20048;-77
2022/09/29 05:56:49;;;;;;;7.13;6.43;;;;;;;;;;5054296;28;20127;-80
2022/09/29 05:59:15;;;;;;;7.22;6.38;;;;;;;;;;5071745;28;20045;-81
2022/09/29 06:01:42;;;;;;;7.80;6.80;;;;;;;;;;5053628;28;20056;-78
2022/09/29 06:04:08;;;;;;;7.45;6.55;;;;;;;;;;5053751;28;20473;-77
2022/09/29 06:06:35;;;;;;;6.95;6.13;;;;;;;;;;5037251;28;20377;-79
2022/09/29 06:09:01;;;;;;;8.05;7.18;;;;;;;;;;5036935;28;20048;-77
2022/09/29 06:11:30;;;;;;;9.25;8.30;;;;;;;;;;5053702;28;20044;-77
2022/09/29 06:13:57;;;;;;;9.07;8.18;;;;;;;;;;5053695;28;20052;-79
2022/09/29 06:16:28;;;;;;;8.85;7.82;;;5.50;99.90;;;;;;5071955;28;20048;-78
2022/09/29 06:18:54;;;;;;;9.68;8.73;;;;;;;;;;5053513;28;20067;-79
2022/09/29 06:21:22;;;;;;;9.18;8.02;;;;;;;;;;5071812;28;20041;-79
2022/09/29 06:23:49;;;;;;;10.70;8.10;;;;;;;;;;5071404;28;20075;-79
2022/09/29 06:26:16;;;;;;;10.40;8.05;;;5.40;99.90;;;;;;5053733;28;20040;-79
2022/09/29 06:28:42;;;;;;;11.50;8.15;;;;;;;;;;5036883;28;20123;-78
2022/09/29 06:31:10;;;;;;;11.13;9.23;;;;;;;;;;5053786;28;20036;-79
2022/09/29 06:33:36;;;;;;;10.63;8.13;;;;;;;;;;5036575;28;20045;-79
2022/09/29 06:39:11;;;;;;;10.35;7.38;;;5.70;99.90;;;;;;5053178;28;20049;-78
2022/09/29 06:41:37;;;;;;;8.45;7.55;;;;;;;;;;5036721;28;20051;-80
2022/09/29 06:44:03;;;;;;;10.82;8.65;;;;;;;;;;5071343;28;20037;-79
2022/09/29 06:46:29;;;;;;;8.60;7.75;;;;;;;;;;5053318;28;20501;-77
2022/09/29 06:48:55;;;;;;;9.65;8.25;;;;;;;;;;5070983;28;20036;-76
2022/09/29 06:51:22;;;;;;;8.60;7.53;;;5.70;99.90;;;;;;5053604;28;20052;-84
2022/09/29 06:53:49;;;;;;;8.82;7.95;;;;;;;;;;5053178;28;20044;-84
2022/09/29 06:56:15;;;;;;;10.88;8.50;;;;;;;;;;5036897;28;20080;-84
2022/09/29 06:58:41;;;;;;;10.65;9.55;;;;;;;;;;5036521;28;20048;-83
2022/09/29 07:01:07;;;;;;;10.30;9.27;;;;;;;;;;5053266;28;20049;-79
2022/09/29 07:03:34;;;;;;;10.63;9.07;;;;;;;;;;5053186;28;20044;-84
2022/09/29 07:06:04;;;;;;;13.65;9.48;;;;;;;;;;5053318;28;20443;-84
2022/09/29 07:08:30;;;;;;;14.68;9.32;;;;;;;;;;5070983;28;20045;-80
2022/09/29 07:10:57;;;;;;;9.95;8.40;;;;;;;;;;5055265;28;20047;-79
2022/09/29 07:13:23;;;;;;;13.07;7.85;;;;;;;;;;5057224;28;20561;-79
2022/09/29 07:15:49;;;;;;;9.13;8.20;;;;;;;;;;5057313;28;20052;-83
2022/09/29 07:18:15;;;;;;;10.18;8.38;;;;;;;;;;5040063;28;20048;-81
2022/09/29 07:20:41;;;;;;;9.25;8.13;;;;;;;;;;5056402;28;20135;-78
2022/09/29 07:23:07;;;;;;;10.13;9.10;;;;;;;;;;5074552;28;20137;-81
2022/09/29 07:25:33;;;;;;;12.65;10.48;;;;;;;;;;5056767;28;20405;-79
2022/09/29 07:28:00;;;;;;;12.27;10.23;;;;;;;;;;5056789;28;20405;-80
2022/09/29 07:30:26;;;;;;;12.73;9.63;;;;;;;;;;5056612;28;20044;-78
2022/09/29 07:32:54;;;;;;;13.55;11.60;;;;;;;;;;5056694;28;20045;-81
2022/09/29 07:35:20;;;;;;;14.13;11.68;;;;;;;;;;5039546;28;20115;-79
2022/09/29 07:37:53;;;;;;;14.90;11.73;;;6.70;99.90;;;;;;5056189;28;20136;-80
2022/09/29 07:40:21;;;;;;;14.85;12.15;;;6.80;99.90;;;;;;5056149;28;20048;-80
2022/09/29 07:42:47;;;;;;;17.25;12.80;;;;;;;;;;5056345;28;20111;-78
2022/09/29 07:45:14;;;;;;;18.50;13.23;;;;;;;;;;5056135;28;20094;-83
2022/09/29 07:47:40;;;;;;;18.55;13.82;;;;;;;;;;5056167;28;20382;-80
2022/09/29 07:50:06;;;;;;;20.45;14.80;;;;;;;;;;5039435;28;20106;-81
2022/09/29 07:52:32;;;;;;;23.35;16.05;;;;;;;;;;5056151;28;20040;-82
2022/09/29 07:54:58;;;;;;;23.20;16.23;;;;;;;;;;5039580;28;20044;-81
2022/09/29 07:57:24;;;;;;;20.75;15.70;;;;;;;;;;5056216;28;20114;-82
2022/09/29 07:59:51;;;;;;;23.17;16.10;;;;;;;;;;5039489;28;20851;-81
2022/09/29 08:02:17;;;;;;;21.60;15.68;;;;;;;;;;5055683;28;20117;-84
2022/09/29 08:04:43;;;;;;;23.83;16.73;;;;;;;;;;5056138;28;20156;-85
2022/09/29 08:07:09;;;;;;;21.42;16.48;;;;;;;;;;5055631;28;20056;-84
2022/09/29 08:09:35;;;;;;;23.73;16.35;;;;;;;;;;5056152;28;20048;-85
2022/09/29 08:12:01;;;;;;;24.38;17.10;;;;;;;;;;5055712;28;20404;-81
2022/09/29 08:14:28;;;;;;;25.38;17.60;;;;;;;;;;5039172;28;20041;-81
2022/09/29 08:16:54;;;;;;;25.83;18.45;;;;;;;;;;5039043;28;20044;-83
2022/09/29 08:19:20;;;;;;;30.65;18.25;;;;;;;;;;5073463;28;20416;-81
2022/09/29 08:21:48;;;;;;;26.75;18.25;;;;;;;;;;5073269;28;20511;-82
2022/09/29 08:24:16;;;;;;;30.17;19.98;;;;;;;;;;5073804;28;20041;-81
2022/09/29 08:26:43;;;;;;;29.23;19.65;;;;;;;;;;5073335;28;20147;-81
2022/09/29 08:29:09;;;;;;;29.83;19.88;;;;;;;;;;5055362;28;20044;-82
2022/09/29 08:31:39;;;;;;;25.02;18.92;;;;;;;;;;5055246;28;20044;-81
2022/09/29 08:34:05;;;;;;;30.70;18.38;;;;;;;;;;5072899;28;20401;-84
2022/09/29 08:36:31;;;;;;;27.20;19.08;;;;;;;;;;5073604;28;20059;-79
2022/09/29 08:38:57;;;;;;;26.15;18.60;;;;;;;;;;5072836;28;20489;-83
2022/09/29 08:41:23;;;;;;;28.77;19.17;;;;;;;;;;5073147;28;20131;-81
2022/09/29 08:43:53;;;;;;;28.42;18.88;;;9.70;99.90;;;;;;5055245;28;20090;-82
2022/09/29 08:46:38;;;;;;;24.40;17.17;;;9.90;99.90;;;;;;5073000;28;20485;-85
2022/09/29 08:49:21;;;;;;;26.35;16.63;;;10.20;99.90;;;;;;5072911;28;20512;-82
2022/09/29 08:51:53;;;;;;;20.60;15.50;;;10.10;99.90;;;;;;5054930;28;20049;-85
2022/09/29 08:54:30;;;;;;;19.98;14.13;;;10.10;99.90;;;;;;5054717;28;20405;-86
2022/09/29 08:56:58;;;;;;;17.92;13.77;;;10.30;99.90;;;;;;5054840;28;20051;-82
2022/09/29 08:59:26;;;;;;;17.67;13.32;;;;;;;;;;5073011;28;20044;-85
2022/09/29 09:02:02;;;;;;;19.98;13.15;;;10.50;99.90;;;;;;5054824;28;20109;-84
2022/09/29 09:04:37;;;;;;;20.15;14.20;;;;;;;;;;5054739;28;20045;-85
2022/09/29 09:07:06;;;;;;;17.30;12.27;;;;;;;;;;5054650;28;20513;-85
2022/09/29 09:10:06;;;;;;;16.70;12.90;;;10.90;99.90;;;;;;5037853;28;20461;-85
2022/09/29 09:12:32;;;;;;;13.82;11.50;;;;;;;;;;5054548;28;20047;-83
2022/09/29 09:15:19;;;;;;;16.90;12.57;;;10.90;99.90;;;;;;5054544;28;20048;-81
2022/09/29 09:17:52;;;;;;;16.85;11.90;;;;;;;;;;5054247;28;20501;-82
2022/09/29 09:20:31;;;;;;;12.35;9.80;;;11.30;99.90;;;;;;5037793;28;20051;-76
2022/09/29 09:22:59;;;;;;;13.77;9.52;;;11.60;99.90;;;;;;5054606;28;20132;-78
2022/09/29 09:25:33;;;;;;;12.13;9.25;;;;;;;;;;5054100;28;20115;-76
2022/09/29 09:28:03;;;;;;;;;;;11.30;99.90;;;;;;5038131;28;20097;-77
2022/09/29 09:30:35;;;;;;;12.35;8.80;;;;;;;;;;5037327;28;19916;-77
2022/09/29 09:33:06;;;;;;;10.60;8.18;;;11.90;99.90;;;;;;5037209;28;20098;-78
2022/09/29 09:35:51;;;;;;;13.50;6.97;;;11.70;99.90;;;;;;5037290;28;20057;-76
2022/09/29 09:38:28;;;;;;;8.57;5.93;;;;;;;;;;5053738;28;20055;-75
2022/09/29 09:40:56;;;;;;;6.40;5.70;;;;;;;;;;5053889;28;20094;-79
2022/09/29 09:43:27;;;;;;;9.98;5.88;;;;;;;;;;5054073;28;20135;-76
2022/09/29 09:46:14;;;;;;;10.07;5.43;;;12.00;99.90;;;;;;5072246;28;20082;-76
2022/09/29 09:48:42;;;;;;;6.15;4.95;;;;;;;;;;5054030;28;20472;-78
2022/09/29 09:51:34;;;;;;;6.50;4.82;;;12.30;99.90;;;;;;5054238;28;20146;-76
2022/09/29 09:54:08;;;;;;;7.68;4.32;;;12.40;99.90;;;;;;5071814;28;20049;-76
2022/09/29 09:56:56;;;;;;;5.15;4.50;;;12.50;99.90;;;;;;5053767;28;20052;-78
2022/09/29 09:59:33;;;;;;;11.13;5.97;;;12.50;99.90;;;;;;5037122;28;20056;-75
2022/09/29 10:01:59;;;;;;;5.60;4.50;;;;;;;;;;5053680;28;20036;-75
2022/09/29 10:04:25;;;;;;;8.13;6.13;;;;;;;;;;5053855;28;20059;-76
2022/09/29 10:06:52;;;;;;;6.90;5.07;;;;;;;;;;5072026;28;20070;-80
2022/09/29 10:09:18;;;;;;;8.40;6.45;;;12.90;99.90;;;;;;5071934;28;20036;-79
2022/09/29 10:11:45;;;;;;;7.97;5.93;;;;;;;;;;5071405;28;20139;-78
2022/09/29 10:14:25;;;;;;;7.47;4.88;;;12.90;99.90;;;;;;5071610;28;20063;-79
2022/09/29 10:17:06;;;;;;;7.55;5.57;;;13.10;99.90;;;;;;5037536;28;20475;-78
2022/09/29 10:19:52;;;;;;;6.95;5.82;;;13.10;99.90;;;;;;5053566;28;20409;-76
2022/09/29 10:22:18;;;;;;;7.82;6.18;;;13.10;99.90;;;;;;5071829;28;20044;-75
2022/09/29 10:24:45;;;;;;;5.22;4.72;;;;;;;;;;5053714;28;20139;-76
2022/09/29 10:27:19;;;;;;;6.82;5.28;;;13.30;99.90;;;;;;5071539;28;20075;-76
2022/09/29 10:29:49;;;;;;;;;;;13.40;99.90;;;;;;5037274;28;20119;-79
2022/09/29 10:32:15;;;;;;;4.88;4.18;;;;;;;;;;5053460;28;19921;-80
2022/09/29 10:34:45;;;;;;;4.22;2.83;;;13.60;99.90;;;;;;5053233;28;20475;-79
2022/09/29 10:37:50;;;;;;;7.25;3.90;;;13.70;99.90;;;;;;5037017;28;20040;-77
2022/09/29 10:40:21;;;;;;;3.95;2.38;;;13.80;99.90;;;;;;5048562;28;20083;-81
2022/09/29 10:42:50;;;;;;;4.55;2.08;;;14.10;99.90;;;;;;5053339;28;20145;-82
2022/09/29 10:45:30;;;;;;;3.72;1.70;;;13.90;99.90;;;;;;5074421;28;20122;-86
2022/09/29 10:48:03;;;;;;;3.80;1.95;;;13.90;99.90;;;;;;5075525;28;20544;-82
2022/09/29 10:50:34;;;;;;;3.78;1.90;;;14.00;99.90;;;;;;5057590;28;20048;-86
2022/09/29 10:53:03;;;;;;;2.92;1.65;;;14.00;99.90;;;;;;5075353;28;20036;-86
2022/09/29 10:55:34;;;;;;;4.60;1.00;;;13.90;99.90;;;;;;5057556;28;20053;-81
2022/09/29 10:58:15;;;;;;;1.40;1.20;;;14.20;99.90;;;;;;5075103;28;20393;-79
2022/09/29 11:00:42;;;;;;;3.00;1.90;;;13.90;99.90;;;;;;5057037;28;20071;-86
2022/09/29 11:03:25;;;;;;;2.50;1.38;;;14.30;99.90;;;;;;5057332;28;20047;-87
2022/09/29 11:05:57;;;;;;;1.33;1.23;;;14.30;99.90;;;;;;5057155;28;20056;-87
2022/09/29 11:08:26;;;;;;;4.40;1.50;;;;;;;;;;5057061;28;20044;-86
2022/09/29 11:11:05;;;;;;;2.90;0.98;;;13.90;99.90;;;;;;5056997;28;20056;-87
2022/09/29 11:13:39;;;;;;;3.28;1.92;;;14.20;99.90;;;;;;5040043;28;20044;-78
2022/09/29 11:16:17;;;;;;;1.40;1.30;;;14.20;99.90;;;;;;5056949;28;20048;-79
2022/09/29 11:18:45;;;;;;;5.95;2.05;;;14.30;99.90;;;;;;5040430;28;20090;-79
2022/09/29 11:21:20;;;;;;;2.08;1.90;;;14.30;99.90;;;;;;5074855;28;20412;-80
2022/09/29 11:23:46;;;;;;;2.50;2.10;;;;;;;;;;5040235;28;20048;-78
2022/09/29 11:26:55;;;;;;;2.17;1.77;;;14.40;99.90;;;;;;5040094;28;20127;-80
2022/09/29 11:29:46;;;;;;;3.42;2.35;;;14.70;99.90;;;;;;4973445;28;20098;-78
2022/09/29 11:32:29;;;;;;;1.92;1.73;;;14.60;99.90;;;;;;4973778;28;20058;-80
2022/09/29 11:35:04;;;;;;;2.08;1.60;;;14.90;99.90;;;;;;4957382;28;20106;-77
2022/09/29 11:37:54;;;;;;;1.83;1.20;;;14.90;99.90;;;;;;4973602;28;20565;-81
2022/09/29 11:40:51;;;;;;;2.78;1.20;;;14.70;99.90;;;;;;4973478;28;20108;-81
2022/09/29 11:43:35;;;;;;;3.03;1.00;;;14.90;99.90;;;;;;4973249;28;20601;-80
2022/09/29 11:46:22;;;;;;;0.80;0.80;;;14.50;99.90;;;;;;4957208;28;20059;-81
2022/09/29 11:49:11;;;;;;;4.47;1.02;;;;;;;;;;4973254;28;20140;-79
2022/09/29 11:52:11;;;;;;;2.95;0.85;;;14.80;99.90;;;;;;4947366;28;20055;-79
2022/09/29 11:55:05;;;;;;;2.90;1.05;;;15.00;99.90;;;;;;4940877;28;20416;-80
2022/09/29 11:57:34;;;;;;;0.70;0.70;;;;;;;;;;4956477;28;20133;-80
2022/09/29 12:00:08;;;;;;;0.70;0.70;;;14.90;99.90;;;;;;4972652;28;20042;-80
2022/09/29 12:03:07;;;;;;;1.02;0.95;;;14.90;99.90;;;;;;4973022;28;20038;-80
2022/09/29 12:05:52;;;;;;;1.10;0.90;;;15.00;99.90;;;;;;5021619;28;20053;-79
2022/09/29 12:08:21;;;;;;;9.75;1.60;;;15.10;99.90;;;;;;5035855;28;20048;-80
2022/09/29 12:11:14;;;;;;;1.48;1.38;;;15.20;99.90;;;;;;5053963;28;20045;-81
2022/09/29 12:13:40;;;;;;;1.75;1.30;;;;;;;;;;5054162;28;20049;-81
2022/09/29 12:16:14;;;;;;;1.48;1.30;;;14.80;99.90;;;;;;5053475;28;20476;-81
2022/09/29 12:18:56;;;;;;;1.13;0.93;;;14.60;99.90;;;;;;5053538;28;20454;-76
2022/09/29 12:21:36;;;;;;;1.58;1.00;;;;;;;;;;5036102;28;20056;-86
2022/09/29 12:24:09;;;;;;;0.80;0.80;;;15.00;99.90;;;;;;5053638;28;20501;-85
2022/09/29 12:26:35;;;;;;;3.20;0.93;;;;;;;;;;5035717;28;20054;-86
2022/09/29 12:29:07;;;;;;;1.55;0.70;;;15.10;99.90;;;;;;5035619;28;20082;-86
2022/09/29 12:31:38;;;;;;;0.40;0.40;;;15.40;99.90;;;;;;5035562;28;20053;-84
2022/09/29 12:34:15;;;;;;;1.40;0.50;;;15.20;99.90;;;;;;5018847;28;20049;-84
2022/09/29 12:37:01;;;;;;;0.88;0.50;;;15.00;99.90;;;;;;5055296;28;20070;-85
2022/09/29 12:39:48;;;;;;;0.70;0.70;;;15.00;99.90;;;;;;5055641;28;20040;-81
2022/09/29 12:42:47;;;;;;;0.77;0.50;;;15.00;99.90;;;;;;5073504;28;20395;-81
2022/09/29 12:45:29;;;;;;;0.40;0.40;;;14.80;99.90;;;;;;5055526;28;20051;-83
2022/09/29 12:48:03;;;;;;;0.65;0.65;;;15.10;99.90;;;;;;5055034;28;20045;-85
2022/09/29 12:50:41;;;;;;;1.35;0.95;;;14.60;99.90;;;;;;5054965;28;20037;-83
2022/09/29 12:53:23;;;;;;;1.70;0.80;;;14.80;99.90;;;;;;5055178;28;20576;-80
2022/09/29 12:55:54;;;;;;;1.33;0.80;;;14.90;99.90;;;;;;5055057;28;20037;-84
2022/09/29 12:58:32;;;;;;;0.98;0.82;;;14.80;99.90;;;;;;5038381;28;20052;-76
2022/09/29 13:01:22;;;;;;;6.07;1.40;;;14.80;99.90;;;;;;5072420;28;20048;-79
2022/09/29 13:04:30;;;;;;;3.58;1.00;;;14.20;99.90;;;;;;5038126;28;20041;-78
2022/09/29 13:07:10;;;;;;;1.58;0.95;;;14.60;99.90;;;;;;4955143;28;20062;-76
2022/09/29 13:09:53;;;;;;;8.18;1.10;;;14.60;99.90;;;;;;4955265;28;20171;-80
2022/09/29 13:12:46;;;;;;;1.38;1.10;;;14.60;99.90;;;;;;4955553;28;20054;-75
2022/09/29 13:15:21;;;;;;;4.32;0.95;;;;;;;;;;4971912;28;20058;-79
2022/09/29 13:17:58;;;;;;;4.15;1.25;;;14.60;99.90;;;;;;4938857;28;20085;-76
2022/09/29 13:21:10;;;;;;;2.47;1.20;;;14.30;99.90;;;;;;4955551;28;20055;-78
2022/09/29 13:23:48;;;;;;;1.65;1.10;;;;;;;;;;4971279;28;20047;-80
2022/09/29 13:26:28;;;;;;;2.35;1.20;;;;;;;;;;4955443;28;20047;-80
2022/09/29 13:28:57;;;;;;;1.45;1.25;;;14.70;99.90;;;;;;4939442;28;20051;-79
2022/09/29 13:31:26;;;;;;;3.60;1.40;;;14.70;99.90;;;;;;4939220;28;20054;-78
2022/09/29 13:33:56;;;;;;;2.00;1.38;;;14.80;99.90;;;;;;4955185;28;20054;-79
2022/09/29 13:36:42;;;;;;;1.50;1.17;;;15.10;99.90;;;;;;4955110;28;20059;-75
2022/09/29 13:39:26;;;;;;;0.88;0.80;;;15.00;99.90;;;;;;4971017;28;20043;-78
2022/09/29 13:41:55;;;;;;;1.17;0.75;;;15.10;99.90;;;;;;4956072;28;20134;-80
2022/09/29 13:44:26;;;;;;;0.90;0.90;;;15.20;99.90;;;;;;5006354;28;20041;-77
2022/09/29 13:46:53;;;;;;;1.13;1.00;;;15.50;99.90;;;;;;5035722;28;20084;-80
2022/09/29 13:49:27;;;;;;;1.17;0.85;;;15.30;99.90;;;;;;5017985;28;20029;-80
2022/09/29 13:52:20;;;;;;;1.95;0.55;;;15.30;99.90;;;;;;5034322;28;20405;-85
2022/09/29 13:54:46;;;;;;;1.08;0.60;;;15.20;99.90;;;;;;5033908;28;20498;-84
2022/09/29 13:57:12;;;;;;;0.50;0.50;;;;;;;;;;5052000;28;20091;-83
2022/09/29 13:59:53;;;;;;;0.43;0.43;;;15.30;99.90;;;;;;5033907;28;20053;-84
2022/09/29 14:02:36;;;;;;;2.25;0.60;;;15.30;99.90;;;;;;5017943;28;20075;-83
2022/09/29 14:05:21;;;;;;;0.63;0.63;;;15.10;99.90;;;;;;5033707;28;20069;-83
2022/09/29 14:08:06;;;;;;;1.42;0.70;;;15.50;99.90;;;;;;5033465;28;20041;-84
2022/09/29 14:10:35;;;;;;;0.65;0.65;;;15.40;99.90;;;;;;5034036;28;20095;-81
2022/09/29 14:13:03;;;;;;;1.40;0.52;;;15.10;99.90;;;;;;5017214;28;20048;-85
2022/09/29 14:15:42;;;;;;;0.57;0.57;;;15.10;99.90;;;;;;5033642;28;20143;-82
2022/09/29 14:18:39;;;;;;;0.77;0.60;;;15.30;99.90;;;;;;5017346;28;20041;-85
2022/09/29 14:21:10;;;;;;;3.40;0.80;;;15.10;99.90;;;;;;4970724;28;20145;-86